Time;durP1;ratioP1;P1;durP2;ratioP2;P2;SDS_P1;SDS_P2;PMS_P1;PMS_P2;Temp;Humidity;BMP_temperature;BMP_pressure;BME280_temperature;BME280_humidity;BME280_pressure;Samples;Min_cycle;Max_cycle;Signal;HPM_P1;HPM_P2
2023/12/14 00:01:34;;;;;;;15.35;11.52;;;4.90;99.90;;;;;;5075520;28;20064;-70
2023/12/14 00:04:00;;;;;;;13.70;11.55;;;4.90;99.90;;;;;;5058979;28;20067;-70
2023/12/14 00:06:26;;;;;;;14.23;11.20;;;4.90;99.90;;;;;;5075694;28;20178;-70
2023/12/14 00:08:52;;;;;;;14.05;11.77;;;5.00;99.90;;;;;;5076014;28;20454;-70
2023/12/14 00:11:18;;;;;;;14.40;11.75;;;4.90;99.90;;;;;;5075735;28;20028;-70
2023/12/14 00:13:44;;;;;;;15.02;11.88;;;4.90;99.90;;;;;;5075496;28;20086;-70
2023/12/14 00:16:10;;;;;;;14.85;11.65;;;4.90;99.90;;;;;;5058907;28;20488;-70
2023/12/14 00:18:36;;;;;;;15.15;12.25;;;4.80;99.90;;;;;;5075575;28;20367;-70
2023/12/14 00:21:02;;;;;;;15.38;12.25;;;4.90;99.90;;;;;;5075716;28;20089;-70
2023/12/14 00:23:28;;;;;;;13.95;11.70;;;4.80;99.90;;;;;;5075248;28;20047;-70
2023/12/14 00:25:53;;;;;;;14.93;11.75;;;4.90;99.90;;;;;;5058649;28;20062;-70
2023/12/14 00:28:19;;;;;;;14.90;11.68;;;4.80;99.90;;;;;;5075501;28;20044;-71
2023/12/14 00:30:45;;;;;;;15.18;11.63;;;4.80;99.90;;;;;;5075167;28;20123;-70
2023/12/14 00:33:10;;;;;;;14.82;11.57;;;4.80;99.90;;;;;;5075088;28;20127;-70
2023/12/14 00:35:36;;;;;;;14.90;11.60;;;4.80;99.90;;;;;;5075228;28;20044;-70
2023/12/14 00:38:02;;;;;;;14.98;11.45;;;4.80;99.90;;;;;;5058404;28;20043;-70
2023/12/14 00:40:28;;;;;;;15.23;12.15;;;4.80;99.90;;;;;;5074989;28;20047;-70
2023/12/14 00:42:53;;;;;;;16.33;11.68;;;4.80;99.90;;;;;;5075071;28;20079;-70
2023/12/14 00:45:19;;;;;;;15.82;12.68;;;4.80;99.90;;;;;;5074945;28;20122;-70
2023/12/14 00:47:45;;;;;;;16.73;12.38;;;4.80;99.90;;;;;;5074929;28;20476;-70
2023/12/14 00:50:10;;;;;;;16.17;12.18;;;4.80;99.90;;;;;;5075161;28;20035;-70
2023/12/14 00:52:36;;;;;;;17.55;13.07;;;4.80;99.90;;;;;;5041688;28;20036;-71
2023/12/14 00:55:02;;;;;;;16.75;12.80;;;4.80;99.90;;;;;;5075023;28;20411;-71
2023/12/14 00:57:27;;;;;;;18.38;12.35;;;4.80;99.90;;;;;;5074911;28;20078;-70
2023/12/14 00:59:54;;;;;;;17.95;13.45;;;4.80;99.90;;;;;;5074860;28;20451;-70
2023/12/14 01:02:19;;;;;;;17.70;12.93;;;4.80;99.90;;;;;;5074794;28;20070;-70
2023/12/14 01:04:45;;;;;;;16.92;12.88;;;4.80;99.90;;;;;;5058026;28;20040;-71
2023/12/14 01:07:11;;;;;;;17.42;12.05;;;4.80;99.90;;;;;;5074764;28;20075;-70
2023/12/14 01:09:36;;;;;;;15.10;11.77;;;4.80;99.90;;;;;;5074694;28;20050;-70
2023/12/14 01:12:02;;;;;;;17.00;12.10;;;4.80;99.90;;;;;;5057991;28;20040;-70
2023/12/14 01:14:28;;;;;;;16.13;11.70;;;4.80;99.90;;;;;;5074684;28;20404;-70
2023/12/14 01:16:53;;;;;;;16.42;12.07;;;4.90;99.90;;;;;;5057903;28;20411;-71
2023/12/14 01:19:19;;;;;;;16.80;11.43;;;4.80;99.90;;;;;;5074670;28;20048;-70
2023/12/14 01:21:45;;;;;;;14.57;11.02;;;4.80;99.90;;;;;;5074860;28;20040;-70
2023/12/14 01:24:11;;;;;;;15.15;10.98;;;4.80;99.90;;;;;;5074435;28;20044;-70
2023/12/14 01:26:36;;;;;;;15.80;11.48;;;4.70;99.90;;;;;;5077360;28;20036;-70
2023/12/14 01:29:02;;;;;;;13.38;10.75;;;4.70;99.90;;;;;;5061907;28;20384;-71
2023/12/14 01:31:28;;;;;;;14.02;10.18;;;4.70;99.90;;;;;;5078761;28;20032;-70
2023/12/14 01:33:54;;;;;;;13.38;9.95;;;4.70;99.90;;;;;;5061914;28;20044;-70
2023/12/14 01:36:25;;;;;;;14.15;10.32;;;4.70;99.90;;;;;;5078474;28;20097;-71
2023/12/14 01:38:51;;;;;;;14.45;10.73;;;4.70;99.90;;;;;;5078441;28;20074;-70
2023/12/14 01:41:17;;;;;;;13.55;10.15;;;4.70;99.90;;;;;;5078538;28;20044;-70
2023/12/14 01:43:43;;;;;;;16.10;11.00;;;4.70;99.90;;;;;;5078277;28;20046;-70
2023/12/14 01:46:09;;;;;;;16.10;11.23;;;4.70;99.90;;;;;;5078270;28;20036;-70
2023/12/14 01:48:35;;;;;;;16.15;11.18;;;4.70;99.90;;;;;;5078411;28;20036;-70
2023/12/14 01:51:01;;;;;;;17.23;11.60;;;4.70;99.90;;;;;;5078518;28;20039;-70
2023/12/14 01:53:26;;;;;;;15.82;11.57;;;4.70;99.90;;;;;;5078148;28;20083;-70
2023/12/14 01:55:52;;;;;;;16.92;11.57;;;4.60;99.90;;;;;;5078461;28;20047;-70
2023/12/14 01:58:18;;;;;;;16.70;12.05;;;4.60;99.90;;;;;;5078030;28;20047;-71
2023/12/14 02:00:48;;;;;;;18.55;12.80;;;4.60;99.90;;;;;;5061270;28;20087;-70
2023/12/14 02:03:15;;;;;;;18.98;12.02;;;4.60;99.90;;;;;;5061335;28;20048;-71
2023/12/14 02:05:40;;;;;;;18.75;12.32;;;4.60;99.90;;;;;;5078233;28;20040;-77
2023/12/14 02:08:07;;;;;;;16.75;11.73;;;4.60;99.90;;;;;;5077925;28;20040;-77
2023/12/14 02:15:56;;;;;;;16.35;11.70;;;4.60;99.90;;;;;;4918427;29;19922;-77
2023/12/14 02:18:22;;;;;;;17.00;12.30;;;4.60;99.90;;;;;;4871140;29;20044;-74
2023/12/14 02:20:47;;;;;;;14.68;10.70;;;4.60;99.90;;;;;;4902612;29;20040;-77
2023/12/14 02:23:13;;;;;;;15.98;11.27;;;4.50;99.90;;;;;;4902371;29;20056;-77
2023/12/14 02:25:39;;;;;;;17.80;11.65;;;4.60;99.90;;;;;;4902357;29;20040;-77
2023/12/14 02:28:04;;;;;;;16.67;11.63;;;4.50;99.90;;;;;;4902672;29;20043;-77
2023/12/14 02:30:30;;;;;;;15.50;10.95;;;4.60;99.90;;;;;;4886679;29;20040;-77
2023/12/14 02:32:56;;;;;;;15.88;11.23;;;4.50;99.90;;;;;;4886811;29;20047;-77
2023/12/14 02:35:22;;;;;;;15.77;11.75;;;4.60;99.90;;;;;;4902179;29;20047;-77
2023/12/14 02:37:48;;;;;;;18.70;12.00;;;4.50;99.90;;;;;;4919741;29;20079;-78
2023/12/14 02:40:14;;;;;;;18.15;11.82;;;4.50;99.90;;;;;;4889701;29;20488;-77
2023/12/14 02:42:40;;;;;;;16.58;9.13;;;4.50;99.90;;;;;;4936885;29;20419;-77
2023/12/14 02:45:07;;;;;;;17.15;11.63;;;4.60;99.90;;;;;;4920973;29;20043;-77
2023/12/14 02:47:33;;;;;;;17.45;11.45;;;4.50;99.90;;;;;;4921114;29;20043;-77
2023/12/14 02:49:59;;;;;;;16.33;10.95;;;4.50;99.90;;;;;;4920743;29;20040;-77
2023/12/14 02:52:25;;;;;;;14.75;10.98;;;4.50;99.90;;;;;;4889528;29;20039;-77
2023/12/14 02:54:50;;;;;;;15.68;11.07;;;4.50;99.90;;;;;;4905090;29;20400;-78
2023/12/14 02:57:16;;;;;;;14.93;10.60;;;4.50;99.90;;;;;;4905368;29;20435;-77
2023/12/14 02:59:42;;;;;;;14.07;10.02;;;4.50;99.90;;;;;;4936469;29;20050;-77
2023/12/14 03:02:07;;;;;;;15.25;10.77;;;4.50;99.90;;;;;;4920702;29;20043;-77
2023/12/14 03:04:33;;;;;;;16.02;10.68;;;4.50;99.90;;;;;;4888972;29;20079;-78
2023/12/14 03:07:02;;;;;;;15.65;10.00;;;4.50;99.90;;;;;;4920497;29;20051;-78
2023/12/14 03:09:28;;;;;;;14.98;10.02;;;4.50;99.90;;;;;;4920758;29;20042;-77
2023/12/14 03:11:54;;;;;;;15.13;10.25;;;4.50;99.90;;;;;;4889008;29;20040;-78
2023/12/14 03:14:20;;;;;;;15.35;10.20;;;4.50;99.90;;;;;;4888876;29;20110;-77
2023/12/14 03:16:46;;;;;;;16.98;10.63;;;4.50;99.90;;;;;;4920406;29;20102;-77
2023/12/14 03:19:12;;;;;;;16.05;10.30;;;4.50;99.90;;;;;;4936336;29;20079;-77
2023/12/14 03:21:38;;;;;;;15.50;10.63;;;4.50;99.90;;;;;;4920437;29;20094;-77
2023/12/14 03:24:03;;;;;;;15.52;10.93;;;4.50;99.90;;;;;;4920236;29;20135;-71
2023/12/14 03:26:29;;;;;;;17.75;10.60;;;4.50;99.90;;;;;;4920186;29;20052;-71
2023/12/14 03:28:55;;;;;;;16.92;10.57;;;4.50;99.90;;;;;;4920348;29;20050;-71
2023/12/14 03:31:20;;;;;;;16.33;10.73;;;4.50;99.90;;;;;;4919940;29;20050;-71
2023/12/14 03:33:46;;;;;;;15.75;10.38;;;4.50;99.90;;;;;;4937050;29;20051;-71
2023/12/14 03:36:12;;;;;;;15.65;10.00;;;4.50;99.90;;;;;;4920067;29;20048;-71
2023/12/14 03:38:38;;;;;;;16.38;10.25;;;4.40;99.90;;;;;;4919958;29;20043;-71
2023/12/14 03:41:04;;;;;;;15.98;10.25;;;4.50;99.90;;;;;;4919922;29;20047;-71
2023/12/14 03:43:29;;;;;;;17.27;9.90;;;4.40;99.90;;;;;;4919705;29;20126;-71
2023/12/14 03:45:55;;;;;;;16.30;9.82;;;4.50;99.90;;;;;;4904185;29;20043;-71
2023/12/14 03:48:21;;;;;;;15.15;10.02;;;4.50;99.90;;;;;;4903904;29;20043;-71
2023/12/14 03:50:46;;;;;;;15.38;9.73;;;4.50;99.90;;;;;;4919762;29;20134;-71
2023/12/14 03:53:12;;;;;;;17.55;9.80;;;4.50;99.90;;;;;;4919944;29;20039;-70
2023/12/14 03:55:38;;;;;;;16.58;10.10;;;4.50;99.90;;;;;;4919636;29;20040;-71
2023/12/14 03:58:04;;;;;;;16.00;10.20;;;4.50;99.90;;;;;;4919502;29;20051;-71
2023/12/14 04:00:29;;;;;;;16.92;10.05;;;4.50;99.90;;;;;;4919520;29;20049;-70
2023/12/14 04:02:55;;;;;;;17.10;10.13;;;4.50;99.90;;;;;;4903594;29;20086;-70
2023/12/14 04:05:21;;;;;;;16.00;9.82;;;4.50;99.90;;;;;;4904008;29;20499;-70
2023/12/14 04:07:47;;;;;;;16.48;9.65;;;4.50;99.90;;;;;;4935243;29;20075;-71
2023/12/14 04:10:13;;;;;;;15.90;9.77;;;4.50;99.90;;;;;;4903644;29;20061;-70
2023/12/14 04:12:39;;;;;;;15.25;9.82;;;4.50;99.90;;;;;;4919442;29;20040;-71
2023/12/14 04:15:07;;;;;;;16.25;10.35;;;4.50;99.90;;;;;;4915583;29;20089;-70
2023/12/14 04:17:33;;;;;;;17.48;10.45;;;4.50;99.90;;;;;;4938276;29;20098;-71
2023/12/14 04:20:00;;;;;;;17.80;11.60;;;4.50;99.90;;;;;;4922313;29;20039;-70
2023/12/14 04:22:26;;;;;;;15.40;10.50;;;4.60;99.90;;;;;;4922393;29;20094;-71
2023/12/14 04:24:52;;;;;;;16.35;10.20;;;4.50;99.90;;;;;;4922330;29;20085;-70
2023/12/14 04:27:18;;;;;;;14.55;9.32;;;4.50;99.90;;;;;;4922291;29;20497;-70
2023/12/14 04:29:44;;;;;;;17.13;11.15;;;4.50;99.90;;;;;;4938137;29;20062;-72
2023/12/14 04:32:10;;;;;;;15.60;10.85;;;4.50;99.90;;;;;;4938196;29;20456;-71
2023/12/14 04:34:35;;;;;;;14.07;9.77;;;4.50;99.90;;;;;;4938383;29;20042;-77
2023/12/14 04:37:01;;;;;;;16.70;10.27;;;4.50;99.90;;;;;;4922518;29;20106;-77
2023/12/14 04:39:27;;;;;;;17.98;11.13;;;4.50;99.90;;;;;;4938063;29;20078;-77
2023/12/14 04:41:53;;;;;;;15.57;10.65;;;4.50;99.90;;;;;;4937755;29;20129;-77
2023/12/14 04:44:21;;;;;;;14.10;9.57;;;4.50;99.90;;;;;;4937927;29;20293;-77
2023/12/14 04:46:47;;;;;;;15.95;9.90;;;4.50;99.90;;;;;;4937749;29;20050;-78
2023/12/14 04:49:13;;;;;;;15.68;9.70;;;4.50;99.90;;;;;;4922105;29;20043;-78
2023/12/14 04:51:39;;;;;;;15.13;10.18;;;4.50;99.90;;;;;;4937955;29;20043;-77
2023/12/14 04:54:05;;;;;;;14.43;10.27;;;4.40;99.90;;;;;;4921994;29;20050;-78
2023/12/14 04:56:30;;;;;;;15.25;10.52;;;4.40;99.90;;;;;;4937604;29;20051;-77
2023/12/14 04:58:56;;;;;;;13.80;10.02;;;4.50;99.90;;;;;;4937702;29;20402;-78
2023/12/14 05:01:22;;;;;;;17.15;11.00;;;4.40;99.90;;;;;;4920875;29;20502;-77
2023/12/14 05:03:48;;;;;;;18.90;11.77;;;4.50;99.90;;;;;;4921770;29;20044;-78
2023/12/14 05:06:13;;;;;;;18.88;11.68;;;4.50;99.90;;;;;;4921820;29;20435;-78
2023/12/14 05:08:39;;;;;;;18.92;12.45;;;4.40;99.90;;;;;;4921732;29;20086;-78
2023/12/14 05:11:05;;;;;;;15.75;11.10;;;4.50;99.90;;;;;;4937709;29;20126;-78
2023/12/14 05:13:31;;;;;;;15.27;10.43;;;4.50;99.90;;;;;;4937741;29;20049;-76
2023/12/14 05:16:00;;;;;;;15.57;10.45;;;4.40;99.90;;;;;;4921669;29;20055;-78
2023/12/14 05:18:26;;;;;;;14.73;9.80;;;4.40;99.90;;;;;;4921659;29;20129;-78
2023/12/14 05:20:52;;;;;;;23.67;15.32;;;4.50;99.90;;;;;;4937287;29;20106;-78
2023/12/14 05:23:18;;;;;;;37.47;26.63;;;4.40;99.90;;;;;;4921353;29;20436;-78
2023/12/14 05:25:44;;;;;;;24.92;18.52;;;4.40;99.90;;;;;;4921842;29;20075;-78
2023/12/14 05:28:10;;;;;;;15.40;11.35;;;4.40;99.90;;;;;;4921771;29;20082;-78
2023/12/14 05:30:36;;;;;;;21.45;16.05;;;4.40;99.90;;;;;;4937182;29;20086;-77
2023/12/14 05:33:02;;;;;;;19.75;14.25;;;4.40;99.90;;;;;;4937377;29;20173;-77
2023/12/14 05:35:27;;;;;;;19.08;12.85;;;4.40;99.90;;;;;;4937415;29;20062;-77
2023/12/14 05:37:53;;;;;;;22.05;14.98;;;4.50;99.90;;;;;;4937309;29;20047;-79
2023/12/14 05:40:19;;;;;;;16.13;11.18;;;4.40;99.90;;;;;;4937548;29;20128;-78
2023/12/14 05:42:45;;;;;;;15.55;10.93;;;4.40;99.90;;;;;;4937190;29;20050;-78
2023/12/14 05:45:11;;;;;;;17.48;12.45;;;4.40;99.90;;;;;;4921422;29;20510;-71
2023/12/14 05:47:38;;;;;;;41.03;33.88;;;4.40;99.90;;;;;;4937119;29;20046;-71
2023/12/14 05:50:04;;;;;;;22.52;17.67;;;4.50;99.90;;;;;;4937326;29;20051;-71
2023/12/14 05:52:30;;;;;;;36.17;31.33;;;4.40;99.90;;;;;;4937195;29;20047;-71
2023/12/14 05:54:56;;;;;;;32.10;25.35;;;4.40;99.90;;;;;;4937093;29;20050;-71
2023/12/14 05:57:22;;;;;;;30.83;23.80;;;4.40;99.90;;;;;;4937017;29;20047;-71
2023/12/14 05:59:49;;;;;;;22.23;17.23;;;4.40;99.90;;;;;;4937182;29;20081;-70
2023/12/14 06:02:15;;;;;;;27.13;20.17;;;4.50;99.90;;;;;;4937127;29;20130;-70
2023/12/14 06:04:41;;;;;;;31.67;25.15;;;4.40;99.90;;;;;;4937019;29;20130;-71
2023/12/14 06:07:07;;;;;;;21.15;15.05;;;4.40;99.90;;;;;;4937049;29;20049;-70
2023/12/14 06:09:35;;;;;;;22.52;16.98;;;4.40;99.90;;;;;;4921435;29;20447;-71
2023/12/14 06:12:04;;;;;;;23.55;17.63;;;4.40;99.90;;;;;;4938807;29;20118;-71
2023/12/14 06:14:31;;;;;;;23.27;18.20;;;4.40;99.90;;;;;;4940214;29;20055;-71
2023/12/14 06:16:57;;;;;;;26.35;20.92;;;4.40;99.90;;;;;;4956693;29;20513;-71
2023/12/14 06:19:23;;;;;;;16.52;10.88;;;4.40;99.90;;;;;;4956378;29;20042;-71
2023/12/14 06:21:49;;;;;;;19.05;12.15;;;4.70;99.90;;;;;;4940322;29;20051;-71
2023/12/14 06:24:15;;;;;;;18.13;12.60;;;4.30;99.90;;;;;;4924349;29;20043;-72
2023/12/14 06:26:45;;;;;;;20.20;15.32;;;4.30;99.90;;;;;;4940311;29;20039;-69
2023/12/14 06:29:11;;;;;;;36.22;25.27;;;4.40;99.90;;;;;;4940425;29;20078;-71
2023/12/14 06:31:38;;;;;;;182.60;95.18;;;4.40;99.90;;;;;;4955893;29;20070;-70
2023/12/14 06:34:04;;;;;;;30.48;19.42;;;4.40;99.90;;;;;;4940072;29;20046;-71
2023/12/14 06:36:34;;;;;;;190.00;116.82;;;4.40;99.90;;;;;;4956210;29;20043;-70
2023/12/14 06:39:00;;;;;;;35.05;25.08;;;4.40;99.90;;;;;;4940583;29;20051;-70
2023/12/14 06:41:28;;;;;;;81.10;65.68;;;4.40;99.90;;;;;;4940002;29;20098;-70
2023/12/14 06:43:54;;;;;;;33.33;25.15;;;4.40;99.90;;;;;;4940095;29;20043;-68
2023/12/14 06:46:20;;;;;;;25.67;19.70;;;4.40;99.90;;;;;;4940208;29;20051;-70
2023/12/14 06:48:47;;;;;;;23.08;18.63;;;4.40;99.90;;;;;;4955761;29;20047;-70
2023/12/14 06:51:13;;;;;;;22.52;18.30;;;4.40;99.90;;;;;;4955766;29;20042;-71
2023/12/14 06:53:43;;;;;;;21.90;14.45;;;4.60;99.90;;;;;;4939880;29;20392;-70
2023/12/14 06:56:10;;;;;;;19.55;13.80;;;4.40;99.90;;;;;;4924070;29;20107;-70
2023/12/14 06:58:44;;;;;;;21.38;14.27;;;4.40;99.90;;;;;;4924149;29;20047;-70
2023/12/14 07:01:14;;;;;;;17.58;11.95;;;4.40;99.90;;;;;;4923768;29;20058;-70
2023/12/14 07:03:44;;;;;;;20.65;13.02;;;4.40;99.90;;;;;;4939459;29;20054;-70
2023/12/14 07:06:14;;;;;;;20.52;13.32;;;4.40;99.90;;;;;;4939427;29;20054;-70
2023/12/14 07:08:40;;;;;;;20.33;12.77;;;4.40;99.90;;;;;;4939420;29;20047;-70
2023/12/14 07:11:08;;;;;;;18.05;12.95;;;4.40;99.90;;;;;;4939555;29;20045;-71
2023/12/14 07:13:36;;;;;;;18.65;12.68;;;4.40;99.90;;;;;;4939392;29;20051;-70
2023/12/14 07:16:07;;;;;;;18.55;12.73;;;4.40;99.90;;;;;;4939226;29;20451;-70
2023/12/14 07:18:35;;;;;;;17.55;11.73;;;4.40;99.90;;;;;;4923368;29;20055;-70
2023/12/14 07:21:01;;;;;;;19.13;12.60;;;4.40;99.90;;;;;;4939538;29;20047;-70
2023/12/14 07:23:27;;;;;;;18.25;12.38;;;4.40;99.90;;;;;;4938561;29;20043;-70
2023/12/14 07:25:53;;;;;;;21.75;13.82;;;4.30;99.90;;;;;;4939166;29;20039;-70
2023/12/14 07:28:19;;;;;;;19.35;13.20;;;4.40;99.90;;;;;;4923599;29;20043;-71
2023/12/14 07:30:46;;;;;;;19.52;13.10;;;4.30;99.90;;;;;;4939112;29;20039;-70
2023/12/14 07:33:12;;;;;;;20.38;13.70;;;4.40;99.90;;;;;;4923627;29;20629;-71
2023/12/14 07:35:38;;;;;;;18.50;12.90;;;4.40;99.90;;;;;;4939217;29;20047;-70
2023/12/14 07:38:04;;;;;;;18.88;13.15;;;4.40;99.90;;;;;;4923191;29;20050;-70
2023/12/14 07:40:29;;;;;;;18.67;13.07;;;4.40;99.90;;;;;;4923258;29;20054;-70
2023/12/14 07:42:55;;;;;;;19.85;13.32;;;4.40;99.90;;;;;;4922998;29;20047;-70
2023/12/14 07:45:21;;;;;;;20.10;13.52;;;4.40;99.90;;;;;;4922998;29;20039;-70
2023/12/14 07:47:47;;;;;;;20.45;13.95;;;4.40;99.90;;;;;;4938743;29;20039;-70
2023/12/14 07:50:13;;;;;;;20.20;14.02;;;4.40;99.90;;;;;;4938757;29;20069;-70
2023/12/14 07:52:40;;;;;;;19.52;13.13;;;4.30;99.90;;;;;;4939037;29;20423;-70
2023/12/14 07:55:06;;;;;;;20.05;14.35;;;4.30;99.90;;;;;;4922939;29;20035;-70
2023/12/14 07:57:32;;;;;;;19.08;12.98;;;4.40;99.90;;;;;;4938645;29;20043;-70
2023/12/14 07:59:58;;;;;;;19.70;13.40;;;4.40;99.90;;;;;;4922733;29;20435;-70
2023/12/14 08:02:24;;;;;;;21.25;13.35;;;4.40;99.90;;;;;;4922703;29;20046;-71
2023/12/14 08:04:49;;;;;;;20.77;12.90;;;4.40;99.90;;;;;;4922609;29;20510;-76
2023/12/14 08:07:15;;;;;;;20.50;13.82;;;4.40;99.90;;;;;;4938481;29;20081;-76
2023/12/14 08:09:41;;;;;;;19.73;13.75;;;4.40;99.90;;;;;;4922936;29;20035;-76
2023/12/14 08:12:07;;;;;;;20.85;13.32;;;4.40;99.90;;;;;;4922565;29;20035;-76
2023/12/14 08:14:34;;;;;;;20.45;13.57;;;4.40;99.90;;;;;;4938228;29;20063;-76
2023/12/14 08:17:01;;;;;;;20.75;13.73;;;4.40;99.90;;;;;;4922592;29;20078;-76
2023/12/14 08:19:27;;;;;;;19.67;13.88;;;4.40;99.90;;;;;;4938514;29;20491;-76
2023/12/14 08:21:53;;;;;;;20.27;14.30;;;4.50;99.90;;;;;;4938217;29;20070;-76
2023/12/14 08:24:18;;;;;;;21.58;14.40;;;4.50;99.90;;;;;;4922292;29;20043;-76
2023/12/14 08:26:44;;;;;;;21.55;14.52;;;4.50;99.90;;;;;;4938018;29;20039;-76
2023/12/14 08:29:10;;;;;;;20.95;14.57;;;4.50;99.90;;;;;;4922321;29;20385;-76
2023/12/14 08:31:36;;;;;;;18.85;13.50;;;4.50;99.90;;;;;;4938272;29;20475;-76
2023/12/14 08:34:03;;;;;;;18.73;14.18;;;4.50;99.90;;;;;;4937967;28;20111;-76
2023/12/14 08:36:29;;;;;;;21.45;14.68;;;4.50;99.90;;;;;;4921742;29;20042;-76
2023/12/14 08:38:54;;;;;;;21.55;14.40;;;4.50;99.90;;;;;;4950529;29;20043;-76
2023/12/14 08:41:20;;;;;;;21.83;14.25;;;4.50;99.90;;;;;;4887886;29;20043;-76
2023/12/14 08:43:46;;;;;;;22.33;14.55;;;4.50;99.90;;;;;;4918674;29;20127;-76
2023/12/14 08:46:12;;;;;;;21.02;14.98;;;4.60;99.90;;;;;;4903376;29;20054;-76
2023/12/14 08:48:38;;;;;;;21.15;14.48;;;4.50;99.90;;;;;;4919060;29;20035;-76
2023/12/14 08:51:04;;;;;;;20.95;14.07;;;4.60;99.90;;;;;;4934633;29;20054;-76
2023/12/14 08:53:30;;;;;;;21.13;14.20;;;4.60;99.90;;;;;;4918548;29;20104;-76
2023/12/14 08:55:55;;;;;;;19.90;14.18;;;4.50;99.90;;;;;;4877289;29;20055;-76
2023/12/14 08:58:21;;;;;;;20.23;14.05;;;4.60;99.90;;;;;;4934436;29;20047;-75
2023/12/14 09:00:52;;;;;;;19.95;13.93;;;4.60;99.90;;;;;;4918647;29;20054;-76
2023/12/14 09:03:19;;;;;;;20.63;14.55;;;4.60;99.90;;;;;;4903688;29;20050;-76
2023/12/14 09:05:45;;;;;;;23.13;13.90;;;4.60;99.90;;;;;;4950343;29;20047;-76
2023/12/14 09:08:11;;;;;;;20.90;14.10;;;4.60;99.90;;;;;;4918465;29;20051;-76
2023/12/14 09:10:40;;;;;;;21.10;13.80;;;4.80;99.90;;;;;;4934508;29;20511;-77
2023/12/14 09:13:06;;;;;;;22.10;13.73;;;4.60;99.90;;;;;;4918471;29;20043;-76
2023/12/14 09:15:32;;;;;;;20.60;13.82;;;4.60;99.90;;;;;;4934191;29;20063;-71
2023/12/14 09:17:58;;;;;;;21.30;13.80;;;4.60;99.90;;;;;;4918368;29;20047;-71
2023/12/14 09:20:24;;;;;;;22.02;13.80;;;4.60;99.90;;;;;;4934171;29;20365;-71
2023/12/14 09:22:50;;;;;;;20.27;14.07;;;4.60;99.90;;;;;;4918201;29;20205;-69
2023/12/14 09:25:16;;;;;;;22.40;14.27;;;4.70;99.90;;;;;;4903118;29;20221;-69
2023/12/14 09:27:42;;;;;;;20.70;13.82;;;4.70;99.90;;;;;;4934416;29;20040;-70
2023/12/14 09:30:08;;;;;;;24.35;14.52;;;4.70;99.90;;;;;;4934359;29;20040;-69
2023/12/14 09:32:34;;;;;;;22.75;14.70;;;4.70;99.90;;;;;;4902603;29;20046;-69
2023/12/14 09:35:00;;;;;;;23.48;15.10;;;4.70;99.90;;;;;;4934336;29;20051;-69
2023/12/14 09:37:26;;;;;;;23.63;14.48;;;4.80;99.90;;;;;;4902288;29;20095;-70
2023/12/14 09:39:52;;;;;;;23.70;15.38;;;4.70;99.90;;;;;;4918481;29;20071;-70
2023/12/14 09:42:20;;;;;;;23.05;14.43;;;4.80;99.90;;;;;;4918479;29;20043;-69
2023/12/14 09:44:48;;;;;;;22.52;14.50;;;4.80;99.90;;;;;;4918171;29;20061;-70
2023/12/14 09:47:14;;;;;;;21.98;14.25;;;4.80;99.90;;;;;;4920082;29;20040;-70
2023/12/14 09:49:42;;;;;;;26.13;17.48;;;4.80;99.90;;;;;;4921999;29;20052;-70
2023/12/14 09:52:09;;;;;;;23.63;14.90;;;4.80;99.90;;;;;;4921977;29;20047;-69
2023/12/14 09:54:35;;;;;;;22.30;14.13;;;4.80;99.90;;;;;;4937694;29;20083;-70
2023/12/14 09:57:01;;;;;;;24.55;15.35;;;4.90;99.90;;;;;;4937565;29;20082;-70
2023/12/14 09:59:26;;;;;;;24.48;15.38;;;4.90;99.90;;;;;;4921805;29;20071;-70
2023/12/14 10:01:52;;;;;;;24.67;15.77;;;4.90;99.90;;;;;;4921632;29;20496;-70
2023/12/14 10:04:20;;;;;;;26.30;15.85;;;5.10;99.90;;;;;;4921612;29;20043;-70
2023/12/14 10:06:47;;;;;;;25.50;15.27;;;5.00;99.90;;;;;;4921658;29;20051;-69
2023/12/14 10:09:17;;;;;;;28.33;16.05;;;5.00;99.90;;;;;;4921819;29;20054;-69
2023/12/14 10:11:44;;;;;;;24.75;15.25;;;5.10;99.90;;;;;;4921775;29;20102;-70
2023/12/14 10:14:21;;;;;;;28.08;15.80;;;5.00;99.90;;;;;;4905717;29;20131;-69
2023/12/14 10:16:47;;;;;;;27.35;15.93;;;5.00;99.90;;;;;;4921520;29;20062;-70
2023/12/14 10:19:13;;;;;;;25.65;15.25;;;5.00;99.90;;;;;;4921693;29;20511;-71
2023/12/14 10:21:39;;;;;;;27.55;16.42;;;5.00;99.90;;;;;;4921339;29;20040;-70
2023/12/14 10:24:06;;;;;;;30.80;17.20;;;5.10;99.90;;;;;;4905682;29;20059;-75
2023/12/14 10:26:31;;;;;;;29.75;16.63;;;5.10;99.90;;;;;;4921583;29;20043;-75
2023/12/14 10:28:57;;;;;;;27.63;17.10;;;5.10;99.90;;;;;;4937245;29;20047;-75
2023/12/14 10:31:25;;;;;;;30.15;17.23;;;5.00;99.90;;;;;;4937235;29;20090;-76
2023/12/14 10:33:52;;;;;;;27.55;16.00;;;5.10;99.90;;;;;;4921189;29;20048;-75
2023/12/14 10:36:24;;;;;;;30.52;17.08;;;5.10;99.90;;;;;;4921168;29;20087;-75
2023/12/14 10:38:53;;;;;;;26.92;15.88;;;5.10;99.90;;;;;;4921038;29;20055;-75
2023/12/14 10:41:21;;;;;;;26.88;16.27;;;5.10;99.90;;;;;;4921221;29;20047;-74
2023/12/14 10:43:48;;;;;;;26.10;16.25;;;5.10;99.90;;;;;;4920911;29;20048;-75
2023/12/14 10:46:14;;;;;;;30.75;17.35;;;5.10;99.90;;;;;;4921276;29;20046;-75
2023/12/14 10:48:43;;;;;;;28.83;17.13;;;5.20;99.90;;;;;;4936940;29;20048;-74
2023/12/14 10:51:11;;;;;;;29.48;16.95;;;5.20;99.90;;;;;;4937035;29;20044;-75
2023/12/14 10:53:37;;;;;;;29.42;16.88;;;5.20;99.90;;;;;;4920918;29;20044;-75
2023/12/14 10:56:09;;;;;;;25.67;15.80;;;5.30;99.90;;;;;;4905007;29;20081;-75
2023/12/14 10:58:51;;;;;;;26.75;16.20;;;5.30;99.90;;;;;;4935483;29;20043;-75
2023/12/14 11:01:18;;;;;;;28.73;15.97;;;5.30;99.90;;;;;;4936729;29;20043;-75
2023/12/14 11:03:45;;;;;;;28.50;16.38;;;5.30;99.90;;;;;;4936438;29;20048;-75
2023/12/14 11:06:31;;;;;;;25.00;16.17;;;5.30;99.90;;;;;;4920607;29;20039;-75
2023/12/14 11:09:05;;;;;;;24.98;16.00;;;5.30;99.90;;;;;;4936478;29;20091;-75
2023/12/14 11:11:43;;;;;;;26.73;15.73;;;5.40;99.90;;;;;;4920357;29;20091;-75
2023/12/14 11:14:11;;;;;;;27.70;15.95;;;5.40;99.90;;;;;;4952333;29;20515;-75
2023/12/14 11:16:44;;;;;;;29.60;16.25;;;5.40;99.90;;;;;;4920428;29;20052;-75
2023/12/14 11:19:22;;;;;;;25.17;15.95;;;5.40;99.90;;;;;;4937625;29;20066;-74
2023/12/14 11:21:59;;;;;;;25.40;16.05;;;5.40;99.90;;;;;;4920297;29;20044;-75
2023/12/14 11:24:25;;;;;;;25.45;15.95;;;5.40;99.90;;;;;;4920208;29;20063;-76
2023/12/14 11:26:51;;;;;;;27.70;16.10;;;5.50;99.90;;;;;;4920439;29;20043;-75
2023/12/14 11:29:19;;;;;;;26.30;16.33;;;5.50;99.90;;;;;;4904709;29;20436;-75
2023/12/14 11:31:45;;;;;;;27.40;16.17;;;5.40;99.90;;;;;;4920059;29;20039;-74
2023/12/14 11:34:12;;;;;;;29.52;16.70;;;5.50;99.90;;;;;;4920188;29;20104;-75
2023/12/14 11:36:41;;;;;;;28.48;16.45;;;5.60;99.90;;;;;;4936047;29;20182;-76
2023/12/14 11:39:09;;;;;;;28.52;16.52;;;5.60;99.90;;;;;;4935843;29;20050;-75
2023/12/14 11:41:36;;;;;;;29.77;16.35;;;5.60;99.90;;;;;;4936022;29;20392;-75
2023/12/14 11:44:02;;;;;;;27.25;16.25;;;5.60;99.90;;;;;;4919768;29;20048;-75
2023/12/14 11:46:30;;;;;;;26.00;16.33;;;5.60;99.90;;;;;;4904150;29;20051;-76
2023/12/14 11:48:57;;;;;;;29.10;16.73;;;5.60;99.90;;;;;;4919715;29;20110;-76
2023/12/14 11:51:23;;;;;;;28.35;16.88;;;5.60;99.90;;;;;;4919771;29;20082;-76
2023/12/14 11:53:50;;;;;;;28.23;16.40;;;5.60;99.90;;;;;;4935557;29;20047;-76
2023/12/14 11:56:22;;;;;;;24.75;16.85;;;5.70;99.90;;;;;;4935615;29;20047;-76
2023/12/14 11:58:48;;;;;;;23.80;16.45;;;5.60;99.90;;;;;;4919783;29;20050;-76
2023/12/14 12:01:19;;;;;;;28.35;15.95;;;5.60;99.90;;;;;;4919475;29;20050;-76
2023/12/14 12:03:45;;;;;;;26.60;16.05;;;5.70;99.90;;;;;;4951225;29;20070;-76
2023/12/14 12:06:27;;;;;;;26.88;16.23;;;5.60;99.90;;;;;;4951309;29;20079;-76
2023/12/14 12:08:53;;;;;;;26.80;16.75;;;5.70;99.90;;;;;;4935251;29;20035;-76
2023/12/14 12:11:25;;;;;;;25.50;16.67;;;5.70;99.90;;;;;;4935244;29;20141;-76
2023/12/14 12:13:54;;;;;;;23.45;15.15;;;5.70;99.90;;;;;;4935257;29;20036;-74
2023/12/14 12:16:21;;;;;;;24.05;15.35;;;5.70;99.90;;;;;;4919195;29;20065;-76
2023/12/14 12:18:46;;;;;;;25.05;15.38;;;5.70;99.90;;;;;;4919513;29;20048;-74
2023/12/14 12:21:12;;;;;;;24.20;15.18;;;5.70;99.90;;;;;;4919365;29;20135;-74
2023/12/14 12:23:39;;;;;;;23.95;14.85;;;5.70;99.90;;;;;;4919214;29;20044;-75
2023/12/14 12:26:05;;;;;;;21.35;13.95;;;5.70;99.90;;;;;;4919100;29;20040;-73
2023/12/14 12:28:31;;;;;;;23.58;14.48;;;5.70;99.90;;;;;;4919071;29;20063;-72
2023/12/14 12:30:57;;;;;;;23.42;14.57;;;5.70;99.90;;;;;;4934850;29;20075;-72
2023/12/14 12:33:23;;;;;;;22.77;14.05;;;5.70;99.90;;;;;;4918996;29;20043;-72
2023/12/14 12:35:49;;;;;;;22.73;13.85;;;5.60;99.90;;;;;;4903560;29;20058;-72
2023/12/14 12:38:16;;;;;;;22.58;13.63;;;5.60;99.90;;;;;;4919034;29;20048;-72
2023/12/14 12:40:42;;;;;;;21.95;13.50;;;5.60;99.90;;;;;;4919102;29;20179;-70